Time;durP1;ratioP1;P1;durP2;ratioP2;P2;SDS_P1;SDS_P2;PMS_P1;PMS_P2;Temp;Humidity;BMP_temperature;BMP_pressure;BME280_temperature;BME280_humidity;BME280_pressure;Samples;Min_cycle;Max_cycle;Signal;HPM_P1;HPM_P2
2021/06/22 00:02:00;;;;;;;8.20;4.70;;;;;;;14.31;100.00;100647.31;4972517;28;20230;-73
2021/06/22 00:04:26;;;;;;;8.03;4.80;;;;;;;14.12;100.00;100642.13;4974632;28;20714;-73
2021/06/22 00:06:52;;;;;;;9.67;4.60;;;;;;;13.96;100.00;100637.97;4995470;28;20228;-73
2021/06/22 00:09:22;;;;;;;9.40;4.30;;;;;;;13.78;100.00;100635.25;4977735;28;20178;-73
2021/06/22 00:11:48;;;;;;;10.13;4.20;;;;;;;13.54;100.00;100640.72;4975460;28;20311;-73
2021/06/22 00:14:13;;;;;;;8.60;4.53;;;;;;;14.06;100.00;100632.41;4993115;28;20209;-73
2021/06/22 00:16:39;;;;;;;8.10;4.17;;;;;;;14.23;100.00;100640.88;4977095;28;20225;-73
2021/06/22 00:19:05;;;;;;;9.10;5.10;;;;;;;14.15;100.00;100656.03;5009830;28;20208;-74
2021/06/22 00:21:33;;;;;;;7.43;5.20;;;;;;;14.28;100.00;100658.84;5008691;28;20217;-74
2021/06/22 00:24:01;;;;;;;8.00;4.63;;;;;;;14.31;100.00;100660.16;5006223;28;20231;-73
2021/06/22 00:26:26;;;;;;;7.27;5.13;;;;;;;14.43;100.00;100658.59;4973250;28;20739;-74
2021/06/22 00:28:54;;;;;;;12.00;5.40;;;;;;;14.33;100.00;100661.47;4991984;28;20231;-73
2021/06/22 00:31:20;;;;;;;7.47;5.30;;;;;;;14.34;100.00;100659.56;4975850;28;20234;-74
2021/06/22 00:33:47;;;;;;;10.07;6.07;;;;;;;14.43;100.00;100642.22;5009691;28;20213;-73
2021/06/22 00:36:15;;;;;;;8.17;5.93;;;;;;;14.45;100.00;100637.25;4992755;28;20604;-72
2021/06/22 00:38:43;;;;;;;12.30;6.37;;;;;;;14.19;100.00;100637.13;4977497;28;20184;-75
2021/06/22 00:41:09;;;;;;;15.53;6.40;;;;;;;14.16;100.00;100637.72;4975516;28;20228;-74
2021/06/22 00:43:40;;;;;;;9.87;6.50;;;;;;;14.23;100.00;100638.16;4994107;28;20221;-73
2021/06/22 00:46:09;;;;;;;13.67;7.20;;;;;;;14.14;100.00;100638.03;4991966;28;20225;-73
2021/06/22 00:48:37;;;;;;;8.70;6.23;;;;;;;13.90;100.00;100637.25;5009301;28;20189;-73
2021/06/22 00:51:04;;;;;;;10.40;7.17;;;;;;;14.02;100.00;100636.84;4975939;28;20225;-74
2021/06/22 00:53:31;;;;;;;10.00;6.73;;;;;;;14.02;100.00;100636.84;4974134;28;20205;-72
2021/06/22 00:55:57;;;;;;;10.47;7.30;;;;;;;14.29;100.00;100644.06;4973525;28;20247;-73
2021/06/22 00:58:34;;;;;;;12.17;7.83;;;;;;;14.10;100.00;100638.88;5001297;28;20227;-73
2021/06/22 01:01:01;;;;;;;10.00;7.20;;;;;;;14.25;100.00;100637.56;5007705;28;20600;-73
2021/06/22 01:03:27;;;;;;;8.77;7.20;;;;;;;14.25;100.00;100632.09;5009421;28;20292;-74
2021/06/22 01:05:57;;;;;;;12.83;7.50;;;;;;;14.41;100.00;100630.78;4992961;28;20221;-73
2021/06/22 01:08:26;;;;;;;14.37;7.53;;;;;;;14.25;100.00;100639.50;4973206;28;20182;-73
2021/06/22 01:10:54;;;;;;;13.57;7.90;;;;;;;14.12;100.00;100636.66;4964272;28;20220;-74
2021/06/22 01:13:20;;;;;;;9.50;7.23;;;;;;;14.17;100.00;100639.34;4977864;28;20224;-74
2021/06/22 01:15:46;;;;;;;10.00;6.90;;;;;;;14.16;100.00;100635.81;5012811;28;20224;-73
2021/06/22 01:18:20;;;;;;;11.70;7.40;;;;;;;14.31;100.00;100630.91;4961339;28;20679;-74
2021/06/22 01:21:06;;;;;;;16.97;7.47;;;;;;;14.36;100.00;100641.78;4962420;28;20760;-73
2021/06/22 01:23:39;;;;;;;12.20;7.50;;;;;;;14.16;100.00;100638.53;4998003;28;20217;-74
2021/06/22 01:26:06;;;;;;;14.07;8.07;;;;;;;14.29;100.00;100624.13;4993097;28;20229;-74
2021/06/22 01:28:38;;;;;;;9.93;7.27;;;;;;;14.19;100.00;100627.00;5013160;28;20666;-74
2021/06/22 01:31:12;;;;;;;11.80;7.27;;;;;;;14.23;100.00;100628.06;4982628;28;20229;-73
2021/06/22 01:33:40;;;;;;;10.77;8.03;;;;;;;14.29;100.00;100630.41;4996468;28;20244;-74
2021/06/22 01:36:08;;;;;;;13.13;8.07;;;;;;;14.15;100.00;100630.63;4981416;28;20311;-74
2021/06/22 01:38:36;;;;;;;11.90;7.07;;;;;;;14.08;100.00;100635.66;4996642;28;20215;-74
2021/06/22 01:41:02;;;;;;;15.57;7.70;;;;;;;13.96;100.00;100632.53;4978646;28;20221;-75
2021/06/22 01:43:30;;;;;;;11.13;7.20;;;;;;;14.05;100.00;100647.97;4979660;28;20223;-73
2021/06/22 01:45:56;;;;;;;13.40;7.47;;;;;;;14.11;100.00;100649.53;4992491;28;20226;-73
2021/06/22 01:48:21;;;;;;;13.83;7.37;;;;;;;14.23;100.00;100669.03;4976808;28;20188;-74
2021/06/22 01:50:52;;;;;;;16.30;6.93;;;;;;;14.16;100.00;100667.78;4975290;28;20240;-74
2021/06/22 01:53:29;;;;;;;12.23;8.10;;;;;;;14.35;100.00;100669.38;4994927;28;20209;-74
2021/06/22 01:56:07;;;;;;;12.97;6.87;;;;;;;14.58;100.00;100679.41;4997019;28;20240;-76
2021/06/22 01:58:36;;;;;;;12.27;7.03;;;;;;;14.56;100.00;100692.56;4996454;28;20681;-75
2021/06/22 02:01:20;;;;;;;12.43;7.00;;;;;;;14.50;100.00;100694.56;4997091;28;20658;-75
2021/06/22 02:04:10;;;;;;;11.87;6.70;;;;;;;14.58;100.00;100691.16;4997954;28;20201;-75
2021/06/22 02:06:36;;;;;;;11.43;7.33;;;;;;;14.54;100.00;100678.38;4995420;28;20252;-75
2021/06/22 02:09:23;;;;;;;10.27;6.73;;;;;;;14.50;100.00;100683.63;5011987;28;20228;-74
2021/06/22 02:11:49;;;;;;;14.87;7.57;;;;;;;14.66;100.00;100687.75;4962194;28;20247;-74
2021/06/22 02:14:15;;;;;;;10.77;7.10;;;;;;;14.73;100.00;100699.13;5011249;28;20243;-73
2021/06/22 02:16:44;;;;;;;11.63;6.27;;;;;;;14.64;100.00;100689.97;4978730;28;20621;-73
2021/06/22 02:19:17;;;;;;;13.37;6.73;;;;;;;14.52;100.00;100686.88;4975904;28;20220;-73
2021/06/22 02:21:43;;;;;;;8.90;6.53;;;;;;;14.59;100.00;100681.84;4959244;28;20720;-74
2021/06/22 02:24:11;;;;;;;12.43;6.90;;;;;;;14.54;100.00;100681.09;4991745;28;20349;-73
2021/06/22 02:26:38;;;;;;;11.73;7.10;;;;;;;14.66;100.00;100671.34;4991429;28;20328;-73
2021/06/22 02:29:07;;;;;;;14.60;7.03;;;;;;;14.58;100.00;100669.31;4994923;28;20785;-73
2021/06/22 02:31:35;;;;;;;9.80;6.37;;;;;;;14.51;100.00;100668.88;4994203;28;20220;-74
2021/06/22 02:34:03;;;;;;;14.40;7.10;;;;;;;14.25;100.00;100672.28;4995297;28;20209;-73
2021/06/22 02:36:30;;;;;;;12.40;7.40;;;;;;;14.36;100.00;100671.84;4978515;28;20244;-73
2021/06/22 02:38:56;;;;;;;15.37;7.67;;;;;;;14.43;100.00;100666.81;4995181;28;20181;-73
2021/06/22 02:41:23;;;;;;;9.57;6.67;;;;;;;14.38;100.00;100674.28;4993801;28;20869;-73
2021/06/22 02:43:57;;;;;;;12.23;6.70;;;;;;;14.35;100.00;100672.94;4987748;28;20208;-75
2021/06/22 02:46:25;;;;;;;12.80;6.87;;;;;;;14.20;100.00;100677.81;4995048;28;20899;-73
2021/06/22 02:48:53;;;;;;;13.93;8.00;;;;;;;14.44;100.00;100690.28;5011245;28;20177;-73
2021/06/22 02:51:24;;;;;;;11.30;6.90;;;;;;;14.29;100.00;100704.16;5004095;28;20206;-75
2021/06/22 02:53:50;;;;;;;9.03;6.00;;;;;;;14.44;100.00;100720.34;5012951;28;20300;-74
2021/06/22 02:56:19;;;;;;;10.23;6.07;;;;;;;14.55;100.00;100719.09;4991890;28;20235;-73
2021/06/22 02:58:52;;;;;;;11.77;6.60;;;;;;;14.82;100.00;100721.97;4946045;28;20180;-73
2021/06/22 03:01:21;;;;;;;11.87;6.37;;;;;;;14.74;100.00;100733.56;4991818;28;20283;-74
2021/06/22 03:03:48;;;;;;;10.37;6.57;;;;;;;14.67;100.00;100744.88;4979777;28;20278;-73
2021/06/22 03:06:17;;;;;;;14.37;6.90;;;;;;;14.72;100.00;100760.38;4960323;28;20316;-74
2021/06/22 03:09:06;;;;;;;11.17;6.73;;;;;;;14.77;100.00;100787.66;4996099;28;20188;-73
2021/06/22 03:11:39;;;;;;;11.13;6.60;;;;;;;14.71;100.00;100794.31;5006127;28;20217;-73
2021/06/22 03:14:10;;;;;;;11.03;6.40;;;;;;;14.41;100.00;100794.75;4989934;28;20762;-73
2021/06/22 03:16:42;;;;;;;12.53;6.63;;;;;;;14.58;100.00;100783.28;5003394;28;20583;-73
2021/06/22 03:19:08;;;;;;;11.97;6.50;;;;;;;14.66;100.00;100775.25;5003328;28;20222;-73
2021/06/22 03:21:48;;;;;;;11.73;6.13;;;;;;;14.48;100.00;100762.38;4983538;28;20224;-73
2021/06/22 03:24:18;;;;;;;9.80;6.53;;;;;;;14.77;100.00;100760.31;4997718;28;20606;-72
2021/06/22 03:26:45;;;;;;;10.50;5.90;;;;;;;14.82;100.00;100768.44;4988768;28;20320;-73
2021/06/22 03:29:11;;;;;;;10.83;6.43;;;;;;;14.44;100.00;100755.88;5011759;28;20203;-73
2021/06/22 03:31:49;;;;;;;11.10;5.93;;;;;;;14.82;100.00;100732.91;4999511;28;20319;-73
2021/06/22 03:34:15;;;;;;;14.33;5.90;;;;;;;14.70;100.00;100721.59;4997189;28;20290;-73
2021/06/22 03:36:45;;;;;;;11.93;6.50;;;;;;;14.74;100.00;100717.16;5012807;28;20221;-74
2021/06/22 03:39:12;;;;;;;8.83;5.77;;;;;;;14.75;100.00;100713.31;4996500;28;20188;-74
2021/06/22 03:41:37;;;;;;;8.50;6.27;;;;;;;14.64;100.00;100717.31;4978272;28;20599;-74
2021/06/22 03:44:04;;;;;;;9.87;6.00;;;;;;;14.67;100.00;100701.13;4992482;28;20201;-73
2021/06/22 03:46:45;;;;;;;11.23;6.37;;;;;;;14.78;100.00;100719.00;4962636;28;20318;-74
2021/06/22 03:49:11;;;;;;;9.83;6.27;;;;;;;14.79;100.00;100719.81;4971424;28;20634;-73
2021/06/22 03:51:40;;;;;;;7.87;5.73;;;;;;;14.97;100.00;100738.94;4986555;28;20227;-74
2021/06/22 03:54:06;;;;;;;9.37;6.53;;;;;;;14.80;100.00;100732.38;4987554;28;20458;-73
2021/06/22 03:56:32;;;;;;;11.10;6.43;;;;;;;14.90;100.00;100729.47;5018891;28;20747;-74
2021/06/22 03:59:06;;;;;;;11.93;5.60;;;;;;;14.91;100.00;100731.09;4988397;28;20246;-72
2021/06/22 04:01:32;;;;;;;7.93;5.73;;;;;;;14.77;100.00;100730.25;5006230;28;20219;-73
2021/06/22 04:03:58;;;;;;;12.30;6.20;;;;;;;14.78;100.00;100734.56;5009709;28;20717;-72
2021/06/22 04:06:42;;;;;;;11.75;6.18;;;;;;;14.85;100.00;100735.84;5009898;28;20251;-73
2021/06/22 04:09:10;;;;;;;9.70;5.80;;;;;;;14.74;100.00;100739.03;5009552;28;20571;-73
2021/06/22 04:11:40;;;;;;;9.13;5.73;;;;;;;14.63;100.00;100724.72;4979465;28;20270;-74
2021/06/22 04:14:06;;;;;;;10.13;5.87;;;;;;;14.60;100.00;100721.75;4973807;28;20225;-73
2021/06/22 04:16:42;;;;;;;10.67;5.80;;;;;;;14.57;100.00;100711.41;4979755;28;20255;-73
2021/06/22 04:19:08;;;;;;;11.17;5.90;;;;;;;14.42;100.00;100708.91;4993484;28;20299;-73
2021/06/22 04:21:36;;;;;;;13.63;6.07;;;;;;;14.72;100.00;100708.44;4992258;28;20227;-73
2021/06/22 04:24:05;;;;;;;9.23;5.60;;;;;;;14.78;100.00;100705.34;5010926;28;20212;-72
2021/06/22 04:26:32;;;;;;;12.10;6.40;;;;;;;15.02;100.00;100709.56;5010059;28;20738;-73
2021/06/22 04:28:58;;;;;;;14.75;7.10;;;;;;;14.99;100.00;100714.81;5019621;28;20183;-74
2021/06/22 04:31:23;;;;;;;9.20;5.70;;;;;;;14.83;100.00;100724.38;4986763;28;20619;-74
2021/06/22 04:33:49;;;;;;;12.53;6.37;;;;;;;14.72;100.00;100722.09;4990663;28;20713;-74
2021/06/22 04:36:22;;;;;;;10.73;6.03;;;;;;;14.71;100.00;100728.69;4960780;28;20721;-72
2021/06/22 04:38:47;;;;;;;12.87;6.07;;;;;;;14.91;100.00;100740.13;4992757;28;20217;-72
2021/06/22 04:41:13;;;;;;;10.53;5.43;;;;;;;14.93;100.00;100748.84;4990625;28;20240;-73
2021/06/22 04:43:41;;;;;;;8.27;5.43;;;;;;;15.17;100.00;100753.09;5009445;28;20220;-75
2021/06/22 04:46:07;;;;;;;7.72;5.20;;;;;;;15.16;100.00;100759.72;4990901;28;20260;-72
2021/06/22 04:48:38;;;;;;;9.27;4.63;;;;;;;14.99;100.00;100762.13;4977024;28;20177;-73
2021/06/22 04:51:04;;;;;;;8.30;5.20;;;;;;;14.99;100.00;100764.88;4975850;28;20906;-73
2021/06/22 04:53:32;;;;;;;8.53;4.53;;;;;;;15.11;100.00;100773.44;4976577;28;20274;-74
2021/06/22 04:55:59;;;;;;;13.40;5.00;;;;;;;15.19;100.00;100775.50;4992513;28;20506;-73
2021/06/22 04:58:28;;;;;;;6.22;4.70;;;;;;;15.07;100.00;100772.41;5009034;28;20563;-71
2021/06/22 05:00:56;;;;;;;9.40;5.23;;;;;;;15.40;100.00;100765.81;4958106;28;20217;-70
2021/06/22 05:03:22;;;;;;;8.43;4.63;;;;;;;15.44;100.00;100761.41;5009052;28;20588;-72
2021/06/22 05:05:48;;;;;;;9.10;4.87;;;;;;;15.60;100.00;100763.53;5007628;28;20235;-72
2021/06/22 05:08:13;;;;;;;8.87;4.83;;;;;;;15.43;100.00;100770.72;4979175;28;20266;-72
2021/06/22 05:10:41;;;;;;;8.35;4.22;;;;;;;15.30;100.00;100778.91;4993133;28;20213;-73
2021/06/22 05:13:09;;;;;;;10.77;4.63;;;;;;;15.29;100.00;100775.34;4981333;28;20217;-73
2021/06/22 05:15:37;;;;;;;7.75;4.32;;;;;;;15.24;100.00;100778.19;5007767;28;20307;-73
2021/06/22 05:18:03;;;;;;;7.23;4.47;;;;;;;15.23;100.00;100775.72;4980990;28;20202;-73
2021/06/22 05:20:31;;;;;;;8.17;4.43;;;;;;;15.51;100.00;100790.00;4989597;28;20229;-74
2021/06/22 05:22:59;;;;;;;10.57;5.40;;;;;;;15.59;100.00;100811.22;4975048;28;20543;-73
2021/06/22 05:25:27;;;;;;;5.97;4.27;;;;;;;15.97;100.00;100809.94;4993671;28;20288;-72
2021/06/22 05:27:55;;;;;;;8.90;4.50;;;;;;;16.08;100.00;100811.38;4991865;28;20728;-72
2021/06/22 05:30:25;;;;;;;7.03;4.20;;;;;;;16.23;100.00;100817.41;4975798;28;20229;-74
2021/06/22 05:32:54;;;;;;;5.87;4.20;;;;;;;16.16;100.00;100822.44;5009074;28;20185;-72
2021/06/22 05:35:19;;;;;;;10.20;4.43;;;;;;;16.20;100.00;100826.22;5009480;28;20212;-73
2021/06/22 05:37:47;;;;;;;8.37;3.90;;;;;;;16.17;100.00;100816.66;4993156;28;20181;-73
2021/06/22 05:40:13;;;;;;;5.65;3.92;;;;;;;16.28;100.00;100825.50;5006155;28;20198;-73
2021/06/22 05:42:38;;;;;;;5.93;3.63;;;;;;;16.20;100.00;100823.50;4988964;28;20293;-74
2021/06/22 05:45:05;;;;;;;9.50;3.97;;;;;;;15.73;100.00;100825.72;4980519;28;20208;-74
2021/06/22 05:47:33;;;;;;;7.10;3.63;;;;;;;15.69;100.00;100807.47;4978354;28;20813;-74
2021/06/22 05:49:59;;;;;;;8.52;4.00;;;;;;;15.96;100.00;100803.66;5007507;28;20300;-73
2021/06/22 05:52:30;;;;;;;8.02;3.70;;;;;;;16.16;100.00;100798.56;4992440;28;20236;-75
2021/06/22 05:54:56;;;;;;;8.00;3.88;;;;;;;16.20;100.00;100794.13;4976124;28;20225;-74
2021/06/22 05:57:22;;;;;;;7.75;4.10;;;;;;;16.27;100.00;100786.31;4977449;28;20721;-72
2021/06/22 05:59:47;;;;;;;7.57;4.55;;;;;;;16.10;100.00;100788.03;4995170;28;20181;-72
2021/06/22 06:02:13;;;;;;;7.88;4.03;;;;;;;16.02;100.00;100786.00;5010442;28;20243;-73
2021/06/22 06:04:42;;;;;;;8.67;4.67;;;;;;;16.06;100.00;100798.00;5012980;28;20212;-74
2021/06/22 06:07:10;;;;;;;9.83;4.60;;;;;;;16.27;100.00;100804.72;4979138;28;20315;-73
2021/06/22 06:09:37;;;;;;;10.60;4.10;;;;;;;16.30;100.00;100815.88;5012822;28;20196;-73
2021/06/22 06:12:05;;;;;;;8.43;3.90;;;;;;;16.25;100.00;100820.66;4993778;28;20632;-73
2021/06/22 06:14:31;;;;;;;4.60;3.38;;;;;;;16.42;100.00;100812.59;4995051;28;20311;-73
2021/06/22 06:17:01;;;;;;;10.40;4.15;;;;;;;16.25;100.00;100818.72;4995168;28;20220;-75
2021/06/22 06:19:27;;;;;;;8.00;3.92;;;;;;;16.45;100.00;100828.47;4992268;28;20655;-73
2021/06/22 06:21:57;;;;;;;6.78;3.45;;;;;;;16.59;100.00;100822.66;4992443;28;20229;-72
2021/06/22 06:24:25;;;;;;;10.50;4.00;;;;;;;16.90;100.00;100826.31;4995395;28;20255;-72
2021/06/22 06:29:25;;;;;;;6.72;3.15;;;;;;;17.08;100.00;100830.84;4991689;28;20197;-73
2021/06/22 06:31:53;;;;;;;7.78;3.25;;;;;;;17.00;100.00;100831.59;4990361;28;20590;-74
2021/06/22 06:34:19;;;;;;;6.80;3.28;;;;;;;17.24;100.00;100821.16;4975791;28;20213;-73
2021/06/22 06:36:47;;;;;;;8.48;3.25;;;;;;;17.15;100.00;100817.50;4991130;28;20222;-72
2021/06/22 06:39:15;;;;;;;9.63;3.38;;;;;;;16.89;100.00;100813.72;4978887;28;20653;-73
2021/06/22 06:41:41;;;;;;;9.63;4.00;;;;;;;16.82;100.00;100818.84;4977576;28;20698;-73
2021/06/22 06:44:06;;;;;;;7.88;3.42;;;;;;;17.09;100.00;100829.75;4994449;28;20255;-73
2021/06/22 06:46:36;;;;;;;8.57;3.40;;;;;;;17.51;100.00;100828.16;4994385;28;20236;-74
2021/06/22 06:49:04;;;;;;;6.30;2.80;;;;;;;16.85;100.00;100833.84;5011284;28;20543;-71
2021/06/22 06:51:29;;;;;;;6.50;3.22;;;;;;;17.00;100.00;100837.09;4992780;28;20801;-73
2021/06/22 06:53:58;;;;;;;6.43;2.78;;;;;;;17.14;100.00;100846.06;5010580;28;20301;-73
2021/06/22 06:56:26;;;;;;;7.25;2.67;;;;;;;16.74;100.00;100871.69;4994552;28;20881;-72
2021/06/22 06:58:52;;;;;;;7.35;2.65;;;;;;;17.05;100.00;100867.13;5010851;28;20279;-73
2021/06/22 07:01:17;;;;;;;5.38;2.55;;;;;;;16.98;100.00;100867.56;5009490;28;20227;-72
2021/06/22 07:03:48;;;;;;;5.75;2.70;;;;;;;16.62;100.00;100865.09;4994639;28;20742;-73
2021/06/22 07:06:14;;;;;;;7.68;2.80;;;;;;;17.01;100.00;100845.00;4978172;28;20233;-73
2021/06/22 07:08:42;;;;;;;6.97;3.13;;;;;;;17.15;100.00;100842.22;4993996;28;20654;-73
2021/06/22 07:11:10;;;;;;;7.97;3.03;;;;;;;16.96;100.00;100847.88;4992882;28;20229;-73
2021/06/22 07:13:40;;;;;;;6.40;2.97;;;;;;;17.27;100.00;100853.47;4994477;28;20689;-72
2021/06/22 07:16:06;;;;;;;8.10;3.13;;;;;;;17.60;100.00;100840.00;4994097;28;20228;-73
2021/06/22 07:18:31;;;;;;;7.22;2.72;;;;;;;17.21;100.00;100847.28;4978625;28;20652;-73
2021/06/22 07:20:58;;;;;;;6.13;2.70;;;;;;;17.14;100.00;100846.06;4992791;28;20217;-73
2021/06/22 07:23:24;;;;;;;7.25;2.47;;;;;;;17.14;100.00;100848.81;4994537;28;20209;-72
2021/06/22 07:25:49;;;;;;;6.15;2.58;;;;;;;17.10;100.00;100854.09;4993643;28;20294;-74
2021/06/22 07:28:15;;;;;;;8.32;3.03;;;;;;;17.08;100.00;100864.59;4993923;28;20751;-73
2021/06/22 07:30:45;;;;;;;7.43;2.70;;;;;;;16.98;100.00;100866.78;4976173;28;20756;-73
2021/06/22 07:33:11;;;;;;;6.47;2.72;;;;;;;16.86;100.00;100866.47;5010927;28;20208;-73
2021/06/22 07:35:37;;;;;;;9.52;3.35;;;;;;;16.69;100.00;100885.53;5010130;28;20231;-72
2021/06/22 07:38:03;;;;;;;6.40;2.88;;;;;;;16.73;100.00;100888.47;5010850;28;20575;-74
2021/06/22 07:40:30;;;;;;;7.20;2.47;;;;;;;16.99;100.00;100877.41;5009200;28;20252;-73
2021/06/22 07:42:59;;;;;;;6.90;2.78;;;;;;;17.40;100.00;100876.22;4993914;28;20197;-73
2021/06/22 07:45:25;;;;;;;8.95;2.58;;;;;;;17.50;100.00;100878.72;4993219;28;20177;-73
2021/06/22 07:47:55;;;;;;;7.10;2.40;;;;;;;17.68;98.93;100874.97;4993986;28;20181;-73
2021/06/22 07:50:21;;;;;;;7.32;2.30;;;;;;;17.43;100.00;100870.09;5008224;28;20189;-74
2021/06/22 07:52:46;;;;;;;5.97;2.28;;;;;;;17.37;100.00;100867.78;4977562;28;20200;-74
2021/06/22 07:55:14;;;;;;;6.55;2.50;;;;;;;17.37;100.00;100865.03;4993450;28;20188;-74
2021/06/22 07:57:49;;;;;;;5.90;2.17;;;;;;;17.80;100.00;100869.69;4993898;28;20208;-73
2021/06/22 08:00:31;;;;;;;8.20;2.40;;;;;;;17.82;91.80;100867.47;4988538;28;20196;-75
2021/06/22 08:03:04;;;;;;;4.72;2.00;;;;;;;18.33;93.65;100866.63;4962355;28;20181;-73
2021/06/22 08:05:30;;;;;;;5.00;2.00;;;;;;;19.30;86.96;100871.38;4999820;28;20576;-72
2021/06/22 08:07:58;;;;;;;7.05;2.20;;;;;;;18.93;84.54;100880.22;4993002;28;20227;-74
2021/06/22 08:10:26;;;;;;;4.03;1.60;;;;;;;18.66;83.40;100874.19;5005961;28;20595;-73
2021/06/22 08:12:52;;;;;;;7.15;1.90;;;;;;;18.05;87.04;100871.78;4976700;28;20189;-73
2021/06/22 08:15:20;;;;;;;6.30;2.10;;;;;;;17.83;87.62;100869.06;4992962;28;20265;-73
2021/06/22 08:17:50;;;;;;;5.70;2.03;;;;;;;17.74;88.27;100865.47;4977841;28;20185;-73
2021/06/22 08:20:16;;;;;;;4.88;1.80;;;;;;;17.59;90.96;100868.59;4991786;28;20188;-74
2021/06/22 08:22:51;;;;;;;6.13;1.85;;;;;;;17.52;89.09;100873.72;4992838;28;20243;-73
2021/06/22 08:25:17;;;;;;;8.98;2.40;;;;;;;17.90;88.59;100877.69;4977233;28;20184;-73
2021/06/22 08:27:42;;;;;;;8.38;2.28;;;;;;;18.08;91.96;100871.19;4976647;28;20656;-74
2021/06/22 08:30:13;;;;;;;5.20;2.00;;;;;;;17.93;84.34;100877.03;4975256;28;20231;-76
2021/06/22 08:32:42;;;;;;;6.22;2.15;;;;;;;18.21;87.48;100871.09;4992966;28;20197;-73
2021/06/22 08:35:08;;;;;;;6.50;2.22;;;;;;;18.80;85.95;100874.84;5008593;28;20209;-74
2021/06/22 08:37:38;;;;;;;6.07;2.15;;;;;;;18.80;80.78;100863.84;4977332;28;20189;-72
2021/06/22 08:40:07;;;;;;;4.68;1.92;;;;;;;18.79;79.15;100866.91;4975449;28;20192;-74
2021/06/22 08:42:36;;;;;;;7.82;2.15;;;;;;;18.89;80.29;100868.22;4990381;28;20188;-72
2021/06/22 08:45:13;;;;;;;3.80;1.70;;;;;;;18.97;81.87;100867.47;4992777;28;20216;-72
2021/06/22 08:47:39;;;;;;;3.70;1.70;;;;;;;19.21;79.38;100867.00;4975920;28;20686;-73
2021/06/22 08:50:09;;;;;;;5.07;1.92;;;;;;;18.48;81.49;100876.38;4991460;28;20185;-74
2021/06/22 08:52:36;;;;;;;7.35;2.22;;;;;;;18.50;84.62;100880.44;4976623;28;20184;-73
2021/06/22 08:55:05;;;;;;;5.63;1.83;;;;;;;18.26;82.91;100885.53;5009329;28;20204;-72
2021/06/22 08:57:34;;;;;;;6.35;1.90;;;;;;;17.90;84.51;100897.75;4973376;28;20272;-73
2021/06/22 09:00:03;;;;;;;4.30;1.80;;;;;;;17.89;84.53;100885.13;4988551;28;20192;-74
2021/06/22 09:02:29;;;;;;;5.25;1.70;;;;;;;18.24;80.46;100893.28;4956927;28;20233;-75
2021/06/22 09:04:58;;;;;;;6.22;1.95;;;;;;;19.33;83.18;100890.03;4989218;28;20215;-74
2021/06/22 09:07:48;;;;;;;7.03;2.83;;;;;;;19.88;72.67;100884.31;4988727;28;20249;-74
2021/06/22 09:10:20;;;;;;;6.75;2.10;;;;;;;19.41;73.59;100891.94;4988992;28;20276;-74
2021/06/22 09:12:47;;;;;;;5.72;2.17;;;;;;;19.71;74.75;100886.28;5007245;28;20193;-73
2021/06/22 09:15:17;;;;;;;3.63;1.70;;;;;;;19.39;75.57;100892.28;5009363;28;20173;-74
2021/06/22 09:17:45;;;;;;;7.72;2.40;;;;;;;18.99;77.58;100894.66;5008829;28;20196;-72
2021/06/22 09:20:30;;;;;;;5.30;2.28;;;;;;;18.69;82.00;100895.53;4991776;28;20266;-72
2021/06/22 09:23:03;;;;;;;4.78;2.10;;;;;;;18.65;81.10;100893.75;4958497;28;20203;-74
2021/06/22 09:25:34;;;;;;;5.72;1.83;;;;;;;18.60;80.09;100894.69;4957636;28;20235;-73
2021/06/22 09:28:00;;;;;;;6.85;2.30;;;;;;;18.59;80.05;100895.84;4973303;28;20212;-73
2021/06/22 09:30:41;;;;;;;7.88;2.65;;;;;;;18.80;83.04;100890.56;5004191;28;20691;-71
2021/06/22 09:33:20;;;;;;;6.13;2.50;;;;;;;18.83;81.83;100889.91;4976642;28;20219;-72
2021/06/22 09:35:46;;;;;;;7.15;2.22;;;;;;;19.66;81.76;100887.22;4976428;28;20773;-72
2021/06/22 09:38:18;;;;;;;6.68;2.35;;;;;;;20.05;77.45;100878.75;4995798;28;20192;-73
2021/06/22 09:40:43;;;;;;;8.35;2.90;;;;;;;20.24;78.42;100891.03;5007644;28;20221;-72
2021/06/22 09:43:09;;;;;;;7.53;2.75;;;;;;;19.22;80.67;100888.72;4963215;28;20582;-72
2021/06/22 09:45:36;;;;;;;10.90;3.42;;;;;;;20.26;81.11;100876.91;4975600;28;20725;-73
2021/06/22 09:48:05;;;;;;;6.43;2.35;;;;;;;20.43;75.46;100870.16;4980228;28;20184;-73
2021/06/22 09:50:40;;;;;;;6.63;2.10;;;;;;;19.93;75.30;100877.84;4993974;28;20248;-72
2021/06/22 09:53:31;;;;;;;5.25;2.08;;;;;;;20.74;68.58;100890.03;5011800;28;20220;-72
2021/06/22 09:55:57;;;;;;;5.95;1.90;;;;;;;20.24;71.74;100873.69;5011654;28;20652;-73
2021/06/22 09:58:43;;;;;;;4.55;1.88;;;;;;;20.08;70.81;100880.88;4995879;28;20223;-73
2021/06/22 10:01:29;;;;;;;5.43;1.85;;;;;;;19.93;67.75;100867.59;4996645;28;20232;-74
2021/06/22 10:03:59;;;;;;;5.88;1.80;;;;;;;20.45;71.08;100869.84;4995019;28;20215;-74
2021/06/22 10:06:32;;;;;;;5.43;1.80;;;;;;;20.59;68.58;100873.19;4995888;28;20221;-74
2021/06/22 10:08:58;;;;;;;4.93;1.60;;;;;;;20.43;65.03;100889.50;5012384;28;20181;-73
2021/06/22 10:11:39;;;;;;;6.93;2.00;;;;;;;19.41;68.76;100890.03;4994049;28;20220;-73
2021/06/22 10:14:07;;;;;;;3.45;1.80;;;;;;;19.21;74.32;100894.53;4975686;28;20304;-72
2021/06/22 10:16:33;;;;;;;3.35;1.75;;;;;;;19.55;73.48;100882.38;4977629;28;20233;-73
2021/06/22 10:19:06;;;;;;;4.22;1.80;;;;;;;19.92;70.55;100890.78;4979265;28;20191;-73
2021/06/22 10:21:33;;;;;;;4.72;1.85;;;;;;;19.63;64.96;100891.78;4994251;28;20229;-73
2021/06/22 10:24:04;;;;;;;4.03;1.83;;;;;;;19.88;65.83;100894.53;4979844;28;20207;-73
2021/06/22 10:26:32;;;;;;;4.47;1.70;;;;;;;19.93;65.58;100899.91;4994976;28;20782;-72
2021/06/22 10:28:59;;;;;;;5.03;1.88;;;;;;;19.85;65.17;100893.25;4959394;28;20733;-72
2021/06/22 10:31:27;;;;;;;4.43;1.75;;;;;;;20.03;63.80;100911.38;4974418;28;20259;-72
2021/06/22 10:33:58;;;;;;;4.75;1.95;;;;;;;20.14;66.17;100907.94;5009613;28;20233;-73
2021/06/22 10:36:30;;;;;;;5.50;2.03;;;;;;;20.58;63.84;100908.25;4994656;28;20224;-74
2021/06/22 10:39:04;;;;;;;4.78;3.05;;;;;;;20.69;61.67;100909.53;4978683;28;20199;-76
2021/06/22 10:41:36;;;;;;;4.10;1.85;;;;;;;20.83;60.12;100899.88;4993816;28;20217;-74
2021/06/22 10:44:11;;;;;;;7.13;2.10;;;;;;;21.12;63.89;100901.84;4978387;28;20696;-75
2021/06/22 10:46:41;;;;;;;7.22;2.30;;;;;;;20.73;66.95;100912.44;4986972;28;20234;-73
2021/06/22 10:49:26;;;;;;;6.35;2.70;;;;;;;20.06;69.52;100930.03;5014863;28;20211;-74
2021/06/22 10:51:52;;;;;;;5.53;2.63;;;;;;;19.91;70.51;100929.75;5018473;28;20266;-72
2021/06/22 10:54:49;;;;;;;4.65;2.40;;;;;;;19.77;71.77;100931.84;4981109;28;20201;-74
2021/06/22 10:57:14;;;;;;;5.57;2.70;;;;;;;19.63;71.46;100927.63;4996935;28;20702;-74
2021/06/22 10:59:57;;;;;;;5.45;2.63;;;;;;;19.44;73.34;100930.69;5016997;28;20216;-73
2021/06/22 11:02:28;;;;;;;4.90;2.75;;;;;;;20.42;72.51;100935.94;4997911;28;20711;-73
2021/06/22 11:05:13;;;;;;;5.55;2.72;;;;;;;20.41;72.95;100928.81;5000302;28;20232;-73
2021/06/22 11:07:38;;;;;;;7.22;3.08;;;;;;;20.87;67.33;100927.66;5022572;28;20301;-73
2021/06/22 11:10:14;;;;;;;5.40;2.50;;;;;;;20.60;63.26;100944.66;4981020;28;20199;-74
2021/06/22 11:12:51;;;;;;;4.53;2.67;;;;;;;20.70;63.21;100936.03;4996883;28;20196;-74
2021/06/22 11:15:17;;;;;;;6.35;2.50;;;;;;;20.71;63.89;100945.91;4995868;28;20227;-74
2021/06/22 11:17:42;;;;;;;6.05;2.50;;;;;;;20.06;67.79;100943.84;5012513;28;20185;-71
2021/06/22 11:20:17;;;;;;;6.18;2.35;;;;;;;20.14;65.40;100926.44;5009944;28;20212;-76
2021/06/22 11:23:06;;;;;;;5.10;2.53;;;;;;;20.41;65.52;100939.84;4980603;28;20216;-73
2021/06/22 11:26:07;;;;;;;6.43;2.60;;;;;;;20.91;63.50;100939.66;4984120;28;20220;-75
2021/06/22 11:28:55;;;;;;;4.40;2.58;;;;;;;20.62;62.60;100934.13;4952198;29;20322;-73
2021/06/22 11:31:47;;;;;;;3.80;2.60;;;;;;;20.78;62.21;100926.88;4988017;28;20667;-76